Time;durP1;ratioP1;P1;durP2;ratioP2;P2;SDS_P1;SDS_P2;PMS_P1;PMS_P2;Temp;Humidity;BMP_temperature;BMP_pressure;BME280_temperature;BME280_humidity;BME280_pressure;Samples;Min_cycle;Max_cycle;Signal;HPM_P1;HPM_P2
2021/12/27 00:00:54;;;;;;;;;;;9.60;97.00;;;;;;5029056;28;19913;-86
2021/12/27 00:03:21;;;;;;;;;;;9.50;96.90;;;;;;5011501;28;19998;-86
2021/12/27 00:05:48;;;;;;;;;;;9.60;96.90;;;;;;5029508;28;19916;-86
2021/12/27 00:08:15;;;;;;;;;;;9.60;97.00;;;;;;5024018;28;19913;-86
2021/12/27 00:10:42;;;;;;;;;;;9.60;97.00;;;;;;5019871;28;19915;-87
2021/12/27 00:13:09;;;;;;;;;;;9.60;97.00;;;;;;5023703;28;19909;-87
2021/12/27 00:15:36;;;;;;;;;;;9.60;97.00;;;;;;5023753;28;19939;-87
2021/12/27 00:18:03;;;;;;;;;;;9.70;97.00;;;;;;5018992;28;20288;-87
2021/12/27 00:20:32;;;;;;;;;;;9.70;97.00;;;;;;5030794;28;20404;-87
2021/12/27 00:22:59;;;;;;;;;;;9.70;97.00;;;;;;5020998;28;19919;-87
2021/12/27 00:25:26;;;;;;;;;;;9.70;97.00;;;;;;5016072;28;19928;-87
2021/12/27 00:27:53;;;;;;;;;;;9.70;97.00;;;;;;5023323;28;19915;-87
2021/12/27 00:30:20;;;;;;;;;;;9.70;97.00;;;;;;5035412;28;20388;-87
2021/12/27 00:32:48;;;;;;;;;;;9.70;97.00;;;;;;5026724;28;19927;-87
2021/12/27 00:35:15;;;;;;;;;;;9.70;97.00;;;;;;5022325;28;20511;-87
2021/12/27 00:37:42;;;;;;;;;;;9.70;97.00;;;;;;5016683;28;19917;-87
2021/12/27 00:40:11;;;;;;;;;;;9.70;96.90;;;;;;5009088;28;20258;-86
2021/12/27 00:42:37;;;;;;;;;;;9.70;97.00;;;;;;5035741;28;20403;-87
2021/12/27 00:45:04;;;;;;;;;;;9.70;96.90;;;;;;5021911;28;19913;-87
2021/12/27 00:47:32;;;;;;;;;;;9.70;96.90;;;;;;5020219;28;20223;-87
2021/12/27 00:49:58;;;;;;;;;;;9.70;96.90;;;;;;5011435;28;19909;-87
2021/12/27 00:52:26;;;;;;;;;;;9.70;96.90;;;;;;5033377;28;20132;-87
2021/12/27 00:54:53;;;;;;;;;;;9.70;96.90;;;;;;5012690;28;21041;-87
2021/12/27 00:57:20;;;;;;;;;;;9.70;96.90;;;;;;5024044;28;19912;-87
2021/12/27 00:59:47;;;;;;;;;;;9.70;97.00;;;;;;5038810;28;19935;-87
2021/12/27 01:02:13;;;;;;;;;;;9.70;97.00;;;;;;5042878;28;19913;-87
2021/12/27 01:04:40;;;;;;;;;;;9.70;97.00;;;;;;5016480;28;20531;-87
2021/12/27 01:07:07;;;;;;;;;;;9.70;97.00;;;;;;5032418;28;19913;-87
2021/12/27 01:15:08;;;;;;;;;;;9.70;97.00;;;;;;5036916;28;19935;-87
2021/12/27 01:17:40;;;;;;;;;;;9.70;97.00;;;;;;5024288;28;19917;-87
2021/12/27 01:20:09;;;;;;;;;;;9.70;97.00;;;;;;5020529;28;19909;-87
2021/12/27 01:22:36;;;;;;;;;;;9.70;97.00;;;;;;5024311;28;20304;-87
2021/12/27 01:25:05;;;;;;;;;;;9.70;96.90;;;;;;5025037;28;20304;-87
2021/12/27 01:27:33;;;;;;;;;;;9.70;96.90;;;;;;5022128;28;19915;-87
2021/12/27 01:30:00;;;;;;;;;;;9.60;96.90;;;;;;5023433;28;19913;-87
2021/12/27 01:32:32;;;;;;;;;;;9.60;96.90;;;;;;5037099;28;19912;-87
2021/12/27 01:34:59;;;;;;;;;;;9.60;96.90;;;;;;5023339;28;20285;-87
2021/12/27 01:37:25;;;;;;;;;;;9.60;96.90;;;;;;5027542;28;19919;-87
2021/12/27 01:39:52;;;;;;;;;;;9.60;96.90;;;;;;5022650;28;19919;-87
2021/12/27 01:42:19;;;;;;;;;;;9.60;96.90;;;;;;5029719;28;19912;-87
2021/12/27 01:44:46;;;;;;;;;;;9.60;96.90;;;;;;5012062;28;20110;-87
2021/12/27 01:47:13;;;;;;;;;;;9.50;96.90;;;;;;5033126;28;19908;-87
2021/12/27 01:49:40;;;;;;;;;;;9.60;96.90;;;;;;5032301;28;20108;-87
2021/12/27 01:52:07;;;;;;;;;;;9.60;97.00;;;;;;5031155;28;20456;-87
2021/12/27 01:54:34;;;;;;;;;;;9.60;97.00;;;;;;5029250;28;20231;-87
2021/12/27 01:57:01;;;;;;;;;;;9.60;97.00;;;;;;5031787;28;19909;-87
2021/12/27 01:59:28;;;;;;;;;;;9.60;97.00;;;;;;5025813;28;19909;-87
2021/12/27 02:01:54;;;;;;;;;;;9.60;97.00;;;;;;5044415;28;20525;-87
2021/12/27 02:04:21;;;;;;;;;;;9.70;97.10;;;;;;5023281;28;19916;-87
2021/12/27 02:06:48;;;;;;;;;;;9.60;97.10;;;;;;5016153;28;19987;-87
2021/12/27 02:09:24;;;;;;;;;;;9.60;97.00;;;;;;5040739;28;19919;-87
2021/12/27 02:11:51;;;;;;;;;;;9.70;97.10;;;;;;5020276;28;19909;-87
2021/12/27 02:14:18;;;;;;;;;;;9.60;97.10;;;;;;5031364;28;19916;-86
2021/12/27 02:16:44;;;;;;;;;;;9.70;97.10;;;;;;5027419;28;20413;-87
2021/12/27 02:19:11;;;;;;;;;;;9.70;97.10;;;;;;5031513;28;19909;-87
2021/12/27 02:21:38;;;;;;;;;;;9.70;97.10;;;;;;5022117;28;20361;-87
2021/12/27 02:24:08;;;;;;;;;;;9.70;97.10;;;;;;5052534;28;19920;-87
2021/12/27 02:26:34;;;;;;;;;;;9.70;97.10;;;;;;5026444;28;20272;-87
2021/12/27 02:29:01;;;;;;;;;;;9.70;97.10;;;;;;5032312;28;19909;-87
2021/12/27 02:31:28;;;;;;;;;;;9.70;97.10;;;;;;5016690;28;19908;-87
2021/12/27 02:33:56;;;;;;;;;;;9.70;97.10;;;;;;5029002;28;20308;-87
2021/12/27 02:36:24;;;;;;;;;;;9.70;97.10;;;;;;5023485;28;20396;-87
2021/12/27 02:38:51;;;;;;;;;;;9.80;97.10;;;;;;5018597;28;20352;-87
2021/12/27 02:41:17;;;;;;;;;;;9.70;97.10;;;;;;5026902;28;20434;-87
2021/12/27 02:43:44;;;;;;;;;;;9.80;97.10;;;;;;5019655;28;20107;-87
2021/12/27 02:46:12;;;;;;;;;;;9.80;97.10;;;;;;5016348;28;19909;-87
2021/12/27 02:48:44;;;;;;;;;;;9.80;97.10;;;;;;5030845;28;19912;-87
2021/12/27 02:51:12;;;;;;;;;;;9.80;97.10;;;;;;5022485;28;20297;-87
2021/12/27 02:53:39;;;;;;;;;;;9.80;97.10;;;;;;5017022;28;19938;-87
2021/12/27 02:56:06;;;;;;;;;;;9.80;97.10;;;;;;5029941;28;19909;-87
2021/12/27 02:58:34;;;;;;;;;;;9.80;97.00;;;;;;5033652;28;19909;-87
2021/12/27 03:01:04;;;;;;;;;;;9.80;97.10;;;;;;5024581;28;19917;-87
2021/12/27 03:03:30;;;;;;;;;;;9.80;97.10;;;;;;5011404;28;20388;-87
2021/12/27 03:05:58;;;;;;;;;;;9.80;97.10;;;;;;5026781;28;20100;-87
2021/12/27 03:08:26;;;;;;;;;;;9.80;97.10;;;;;;5021322;28;20288;-87
2021/12/27 03:10:57;;;;;;;;;;;9.80;97.10;;;;;;5026867;28;20382;-87
2021/12/27 03:13:25;;;;;;;;;;;9.80;97.10;;;;;;5031116;28;19909;-87
2021/12/27 03:16:06;;;;;;;;;;;9.80;97.10;;;;;;5026012;28;20120;-87
2021/12/27 03:18:34;;;;;;;;;;;9.80;97.10;;;;;;5021194;28;19909;-87
2021/12/27 03:21:04;;;;;;;;;;;9.80;97.10;;;;;;5026220;28;19916;-87
2021/12/27 03:23:32;;;;;;;;;;;9.80;97.10;;;;;;5015120;28;19913;-87
2021/12/27 03:25:59;;;;;;;;;;;9.80;97.10;;;;;;5030922;28;19909;-87
2021/12/27 03:28:26;;;;;;;;;;;9.80;97.10;;;;;;5032082;28;20431;-87
2021/12/27 03:30:53;;;;;;;;;;;9.80;97.00;;;;;;5024919;28;20115;-87
2021/12/27 03:33:23;;;;;;;;;;;9.80;96.90;;;;;;5020899;28;20292;-87
2021/12/27 03:36:13;;;;;;;;;;;9.80;96.90;;;;;;5031609;28;20010;-87
2021/12/27 03:38:41;;;;;;;;;;;9.80;96.90;;;;;;5010457;28;20105;-87
2021/12/27 03:41:10;;;;;;;;;;;9.70;96.90;;;;;;5033795;28;19909;-87
2021/12/27 03:43:37;;;;;;;;;;;9.70;96.80;;;;;;5040910;28;19913;-87
2021/12/27 03:46:04;;;;;;;;;;;9.70;96.80;;;;;;5031681;28;19908;-87
2021/12/27 03:48:31;;;;;;;;;;;9.70;96.80;;;;;;5034512;28;19915;-86
2021/12/27 03:50:58;;;;;;;;;;;9.70;96.80;;;;;;5016172;28;19960;-87
2021/12/27 03:53:25;;;;;;;;;;;9.60;96.70;;;;;;5019512;28;19909;-87
2021/12/27 03:55:51;;;;;;;;;;;9.60;96.70;;;;;;5024073;28;20458;-87
2021/12/27 03:58:32;;;;;;;;;;;9.60;96.70;;;;;;5029239;28;20143;-87
2021/12/27 04:01:14;;;;;;;;;;;9.60;96.70;;;;;;5046576;28;19909;-87
2021/12/27 04:03:42;;;;;;;;;;;9.60;96.80;;;;;;5012933;28;20561;-87
2021/12/27 04:06:09;;;;;;;;;;;9.50;96.80;;;;;;5032130;28;19913;-88
2021/12/27 04:08:36;;;;;;;;;;;9.60;96.90;;;;;;5015209;28;19916;-87
2021/12/27 04:11:03;;;;;;;;;;;9.50;97.00;;;;;;5018820;28;19909;-87
2021/12/27 04:13:30;;;;;;;;;;;9.60;97.10;;;;;;5036424;28;19917;-87
2021/12/27 04:15:57;;;;;;;;;;;9.60;97.10;;;;;;5038265;28;19908;-87
2021/12/27 04:18:23;;;;;;;;;;;9.70;97.20;;;;;;5019385;28;19917;-87
2021/12/27 04:20:50;;;;;;;;;;;9.70;97.30;;;;;;5011231;28;20298;-87
2021/12/27 04:23:17;;;;;;;;;;;9.70;97.40;;;;;;5052352;28;19919;-87
2021/12/27 04:25:44;;;;;;;;;;;9.70;97.40;;;;;;5020378;28;19931;-87
2021/12/27 04:28:11;;;;;;;;;;;9.80;97.40;;;;;;5033168;28;20342;-86
2021/12/27 04:30:38;;;;;;;;;;;9.90;97.50;;;;;;5022300;28;19955;-86
2021/12/27 04:33:05;;;;;;;;;;;9.90;97.50;;;;;;5027167;28;20289;-86
2021/12/27 04:35:32;;;;;;;;;;;9.90;97.50;;;;;;5020663;28;19912;-87
2021/12/27 04:37:59;;;;;;;;;;;10.00;97.50;;;;;;5020101;28;20284;-87
2021/12/27 04:40:27;;;;;;;;;;;10.00;97.50;;;;;;5024946;28;20279;-87
2021/12/27 04:42:56;;;;;;;;;;;10.00;97.50;;;;;;5007689;28;19924;-86
2021/12/27 04:45:23;;;;;;;;;;;10.10;97.60;;;;;;5027571;28;19939;-87
2021/12/27 04:47:50;;;;;;;;;;;10.10;97.60;;;;;;5021929;28;19935;-86
2021/12/27 04:50:16;;;;;;;;;;;10.10;97.50;;;;;;5014545;28;19909;-87
2021/12/27 04:52:45;;;;;;;;;;;10.20;97.60;;;;;;5033955;28;19909;-86
2021/12/27 04:55:12;;;;;;;;;;;10.20;97.60;;;;;;5029249;28;19923;-87
2021/12/27 04:57:38;;;;;;;;;;;10.20;97.50;;;;;;5001759;28;19908;-87
2021/12/27 05:00:06;;;;;;;;;;;10.30;97.60;;;;;;5020648;28;19943;-86
2021/12/27 05:02:33;;;;;;;;;;;10.30;97.50;;;;;;5035643;28;19935;-87
2021/12/27 05:05:00;;;;;;;;;;;10.30;97.50;;;;;;5036219;28;19923;-86
2021/12/27 05:07:27;;;;;;;;;;;10.30;97.50;;;;;;5018270;28;20140;-87
2021/12/27 05:09:53;;;;;;;;;;;10.30;97.50;;;;;;5024745;28;20108;-86
2021/12/27 05:12:20;;;;;;;;;;;10.30;97.40;;;;;;5021154;28;20388;-87
2021/12/27 05:14:47;;;;;;;;;;;10.30;97.40;;;;;;5022223;28;20392;-86
2021/12/27 05:17:14;;;;;;;;;;;10.30;97.40;;;;;;5029228;28;19909;-86
2021/12/27 05:19:41;;;;;;;;;;;10.30;97.40;;;;;;5032409;28;20162;-86
2021/12/27 05:22:08;;;;;;;;;;;10.30;97.40;;;;;;5011171;28;19916;-87
2021/12/27 05:24:35;;;;;;;;;;;10.40;97.30;;;;;;5010494;28;19913;-90
2021/12/27 05:27:02;;;;;;;;;;;10.30;97.40;;;;;;5010087;28;20285;-86
2021/12/27 05:29:29;;;;;;;;;;;10.40;97.50;;;;;;5023826;28;20279;-87
2021/12/27 05:32:01;;;;;;;;;;;10.40;97.40;;;;;;5010217;28;19916;-89
2021/12/27 05:35:08;;;;;;;;;;;10.40;97.40;;;;;;5086787;27;19916;-85
2021/12/27 05:37:35;;;;;;;;;;;10.40;97.40;;;;;;5044048;28;21103;-85
2021/12/27 05:40:05;;;;;;;;;;;10.40;97.40;;;;;;5039286;28;19917;-86
2021/12/27 05:42:33;;;;;;;;;;;10.40;97.40;;;;;;5035668;28;19912;-86
2021/12/27 05:45:00;;;;;;;;;;;10.40;97.40;;;;;;5041821;28;19917;-85
2021/12/27 05:47:27;;;;;;;;;;;10.40;97.40;;;;;;5051749;28;19912;-86
2021/12/27 05:49:54;;;;;;;;;;;10.40;97.30;;;;;;5051540;28;20095;-86
2021/12/27 05:52:21;;;;;;;;;;;10.40;97.30;;;;;;5042916;28;20312;-85
2021/12/27 05:54:48;;;;;;;;;;;10.40;97.30;;;;;;5070835;28;20281;-85
2021/12/27 05:57:14;;;;;;;;;;;10.40;97.30;;;;;;5061934;28;19912;-87
2021/12/27 05:59:41;;;;;;;;;;;10.40;97.30;;;;;;5015043;28;19931;-88
2021/12/27 06:02:08;;;;;;;;;;;10.40;97.30;;;;;;5030551;28;19916;-88
2021/12/27 06:04:35;;;;;;;;;;;10.30;97.20;;;;;;5015105;28;19919;-88
2021/12/27 06:07:02;;;;;;;;;;;10.40;97.30;;;;;;5025296;28;20042;-88
2021/12/27 06:09:29;;;;;;;;;;;10.40;97.30;;;;;;5044662;28;20250;-88
2021/12/27 06:11:56;;;;;;;;;;;10.40;97.20;;;;;;5052964;28;20468;-88
2021/12/27 06:14:22;;;;;;;;;;;10.40;97.20;;;;;;5024917;28;19923;-88
2021/12/27 06:16:49;;;;;;;;;;;10.40;97.10;;;;;;5042481;28;20312;-88
2021/12/27 06:19:17;;;;;;;;;;;10.30;97.10;;;;;;5038771;28;20396;-88
2021/12/27 06:21:44;;;;;;;;;;;10.30;97.00;;;;;;5044235;28;19923;-88
2021/12/27 06:24:11;;;;;;;;;;;10.30;97.00;;;;;;5030441;28;19912;-88
2021/12/27 06:26:38;;;;;;;;;;;10.20;96.90;;;;;;5049522;28;19919;-88
2021/12/27 06:29:05;;;;;;;;;;;10.10;96.70;;;;;;5027311;28;19943;-88
2021/12/27 06:31:32;;;;;;;;;;;10.10;96.60;;;;;;5025072;28;19913;-88
2021/12/27 06:33:58;;;;;;;;;;;10.00;96.50;;;;;;5052741;28;20121;-88
2021/12/27 06:36:25;;;;;;;;;;;9.90;96.40;;;;;;5046881;28;19916;-88
2021/12/27 06:38:52;;;;;;;;;;;9.80;96.30;;;;;;5039182;28;20104;-88
2021/12/27 06:41:19;;;;;;;;;;;9.70;96.20;;;;;;5043765;28;19912;-88
2021/12/27 06:43:46;;;;;;;;;;;9.70;96.20;;;;;;5043269;28;19913;-87
2021/12/27 06:46:13;;;;;;;;;;;9.60;96.10;;;;;;5032187;28;20297;-88
2021/12/27 06:48:39;;;;;;;;;;;9.50;96.00;;;;;;5037479;28;19913;-88
2021/12/27 06:51:06;;;;;;;;;;;9.40;96.00;;;;;;5030546;28;19921;-88
2021/12/27 06:53:33;;;;;;;;;;;9.30;95.90;;;;;;5032846;28;19927;-88
2021/12/27 06:56:02;;;;;;;;;;;9.20;95.90;;;;;;5017878;28;20178;-88
2021/12/27 06:58:29;;;;;;;;;;;9.20;95.90;;;;;;5038754;28;19919;-88
2021/12/27 07:00:55;;;;;;;;;;;9.10;95.80;;;;;;5029822;28;20537;-88
2021/12/27 07:03:22;;;;;;;;;;;9.10;95.90;;;;;;5035884;28;20301;-88
2021/12/27 07:05:49;;;;;;;;;;;9.00;95.80;;;;;;5026169;28;20102;-88
2021/12/27 07:08:18;;;;;;;;;;;8.90;95.80;;;;;;5038437;28;19921;-88
2021/12/27 07:10:45;;;;;;;;;;;8.90;95.70;;;;;;5012421;28;20285;-88
2021/12/27 07:13:12;;;;;;;;;;;8.80;95.80;;;;;;5038302;28;19919;-88
2021/12/27 07:15:41;;;;;;;;;;;8.80;95.80;;;;;;5020661;28;20373;-88
2021/12/27 07:18:12;;;;;;;;;;;8.80;95.80;;;;;;5030955;28;19947;-88
2021/12/27 07:20:39;;;;;;;;;;;8.80;95.90;;;;;;5039814;28;19920;-88
2021/12/27 07:23:06;;;;;;;;;;;8.80;95.90;;;;;;5035268;28;20425;-88
2021/12/27 07:25:34;;;;;;;;;;;8.80;96.00;;;;;;5029310;28;20391;-88
2021/12/27 07:28:01;;;;;;;;;;;8.70;96.00;;;;;;5030859;28;19912;-88
2021/12/27 07:30:30;;;;;;;;;;;8.70;96.00;;;;;;5029487;28;19919;-88
2021/12/27 07:32:58;;;;;;;;;;;8.70;96.00;;;;;;5021631;28;20140;-88
2021/12/27 07:35:25;;;;;;;;;;;8.70;96.00;;;;;;5030299;28;20136;-88
2021/12/27 07:37:52;;;;;;;;;;;8.70;96.00;;;;;;5036764;28;20105;-88
2021/12/27 07:40:19;;;;;;;;;;;8.70;96.00;;;;;;5022642;28;19916;-88
2021/12/27 07:42:46;;;;;;;;;;;8.70;96.10;;;;;;5023844;28;20300;-88
2021/12/27 07:45:13;;;;;;;;;;;8.60;96.10;;;;;;5035427;28;20424;-88
2021/12/27 07:47:39;;;;;;;;;;;8.60;96.10;;;;;;5016787;28;19917;-88
2021/12/27 07:50:07;;;;;;;;;;;8.60;96.10;;;;;;5025088;28;20420;-88
2021/12/27 07:52:34;;;;;;;;;;;8.60;96.20;;;;;;5033844;28;19916;-88
2021/12/27 07:55:01;;;;;;;;;;;8.70;96.20;;;;;;5034163;28;20313;-88
2021/12/27 07:57:28;;;;;;;;;;;8.70;96.30;;;;;;5013721;28;19912;-88
2021/12/27 07:59:55;;;;;;;;;;;8.70;96.40;;;;;;5033558;28;19935;-88
2021/12/27 08:02:21;;;;;;;;;;;8.70;96.40;;;;;;5027411;28;19927;-88
2021/12/27 08:04:48;;;;;;;;;;;8.70;96.50;;;;;;5037393;28;20283;-88
2021/12/27 08:07:15;;;;;;;;;;;8.80;96.60;;;;;;5038234;28;19917;-88
2021/12/27 08:09:42;;;;;;;;;;;8.80;96.60;;;;;;5029011;28;19912;-88
2021/12/27 08:12:12;;;;;;;;;;;8.90;96.60;;;;;;5023701;28;20362;-88
2021/12/27 08:14:39;;;;;;;;;;;8.90;96.70;;;;;;5025105;28;19923;-88
2021/12/27 08:17:06;;;;;;;;;;;8.90;96.70;;;;;;5028507;28;20332;-88
2021/12/27 08:19:33;;;;;;;;;;;9.00;96.80;;;;;;5036605;28;19909;-88
2021/12/27 08:22:00;;;;;;;;;;;9.00;96.80;;;;;;5037865;28;20256;-88
2021/12/27 08:24:27;;;;;;;;;;;9.10;96.80;;;;;;5035688;28;20357;-88
2021/12/27 08:26:54;;;;;;;;;;;9.10;96.80;;;;;;5019131;28;20139;-88
2021/12/27 08:29:21;;;;;;;;;;;9.10;96.90;;;;;;5018835;28;19909;-88
2021/12/27 08:31:48;;;;;;;;;;;9.20;97.00;;;;;;5029172;28;20113;-88
2021/12/27 08:34:15;;;;;;;;;;;9.20;97.00;;;;;;5019556;28;20295;-88
2021/12/27 08:36:42;;;;;;;;;;;9.20;97.00;;;;;;5030847;28;19913;-88
2021/12/27 08:39:09;;;;;;;;;;;9.30;97.00;;;;;;5034413;28;19913;-88
2021/12/27 08:41:35;;;;;;;;;;;9.30;97.00;;;;;;5020025;28;20313;-88
2021/12/27 08:44:05;;;;;;;;;;;9.30;97.00;;;;;;5007092;28;19920;-88
2021/12/27 08:46:32;;;;;;;;;;;9.40;97.10;;;;;;5038193;28;19913;-88
2021/12/27 08:48:59;;;;;;;;;;;9.40;97.10;;;;;;5023944;28;20531;-88
2021/12/27 08:51:26;;;;;;;;;;;9.40;97.10;;;;;;5036270;28;20116;-88
2021/12/27 08:53:53;;;;;;;;;;;9.40;97.10;;;;;;5035525;28;19917;-88
2021/12/27 08:56:20;;;;;;;;;;;9.50;97.10;;;;;;5033818;28;20612;-88
2021/12/27 08:58:47;;;;;;;;;;;9.50;97.20;;;;;;5023292;28;20411;-88
2021/12/27 09:01:14;;;;;;;;;;;9.60;97.20;;;;;;5021098;28;20105;-88
2021/12/27 09:03:41;;;;;;;;;;;9.60;97.20;;;;;;5033383;28;19913;-88
2021/12/27 09:06:09;;;;;;;;;;;9.60;97.20;;;;;;5014088;28;19921;-88
2021/12/27 09:08:35;;;;;;;;;;;9.60;97.20;;;;;;5028720;28;19917;-88
2021/12/27 09:11:02;;;;;;;;;;;9.60;97.20;;;;;;5032398;28;20381;-88
2021/12/27 09:13:30;;;;;;;;;;;9.70;97.30;;;;;;5019914;28;20212;-88
2021/12/27 09:16:01;;;;;;;;;;;9.70;97.30;;;;;;5024748;28;19923;-88
2021/12/27 09:18:32;;;;;;;;;;;9.80;97.40;;;;;;5011451;28;21225;-88
2021/12/27 09:20:59;;;;;;;;;;;9.80;97.40;;;;;;5021157;28;20194;-88
2021/12/27 09:23:26;;;;;;;;;;;9.90;97.50;;;;;;5031596;28;19916;-88
2021/12/27 09:25:53;;;;;;;;;;;9.90;97.50;;;;;;5035677;28;19919;-88
2021/12/27 09:28:20;;;;;;;;;;;9.90;97.50;;;;;;5020301;28;19921;-88
2021/12/27 09:30:47;;;;;;;;;;;10.00;97.50;;;;;;5008899;28;19920;-88
2021/12/27 09:33:14;;;;;;;;;;;10.00;97.50;;;;;;5043234;28;20006;-88
2021/12/27 09:35:41;;;;;;;;;;;10.10;97.60;;;;;;5023461;28;20332;-88
2021/12/27 09:38:08;;;;;;;;;;;10.10;97.60;;;;;;5044701;28;19913;-88
2021/12/27 09:40:35;;;;;;;;;;;10.20;97.60;;;;;;5031976;28;19917;-88
2021/12/27 09:43:02;;;;;;;;;;;10.20;97.60;;;;;;5034954;28;20285;-88
2021/12/27 09:45:29;;;;;;;;;;;10.30;97.80;;;;;;5017270;28;20078;-88
2021/12/27 09:47:56;;;;;;;;;;;10.30;97.60;;;;;;5034335;28;20197;-88
2021/12/27 09:50:26;;;;;;;;;;;10.40;97.70;;;;;;5026775;28;19921;-88
2021/12/27 09:52:53;;;;;;;;;;;10.40;97.70;;;;;;5022630;28;20369;-88
2021/12/27 09:55:20;;;;;;;;;;;10.40;97.80;;;;;;5031649;28;19951;-88
2021/12/27 09:57:47;;;;;;;;;;;10.50;97.80;;;;;;5033376;28;19924;-88
2021/12/27 10:00:14;;;;;;;;;;;10.50;98.10;;;;;;5017351;28;20303;-88
2021/12/27 10:02:41;;;;;;;;;;;10.60;97.80;;;;;;5024914;28;19908;-88
2021/12/27 10:05:08;;;;;;;;;;;10.60;97.80;;;;;;5025050;28;19923;-88
2021/12/27 10:07:35;;;;;;;;;;;10.60;97.80;;;;;;5024052;28;20403;-88
2021/12/27 10:10:02;;;;;;;;;;;10.70;97.80;;;;;;5036166;28;19912;-87
2021/12/27 10:12:29;;;;;;;;;;;10.70;97.80;;;;;;5035995;28;20428;-88
2021/12/27 10:15:00;;;;;;;;;;;10.70;97.80;;;;;;5030814;28;19944;-88
2021/12/27 10:17:30;;;;;;;;;;;10.80;97.90;;;;;;5018735;28;21126;-88
2021/12/27 10:20:08;;;;;;;;;;;10.80;97.80;;;;;;5027190;28;20193;-88
2021/12/27 10:22:40;;;;;;;;;;;10.80;97.90;;;;;;5029492;28;19920;-87
2021/12/27 10:25:08;;;;;;;;;;;10.90;97.90;;;;;;5028811;28;19913;-88
2021/12/27 10:27:35;;;;;;;;;;;10.90;98.00;;;;;;5042804;28;19923;-88
2021/12/27 10:30:10;;;;;;;;;;;11.00;98.20;;;;;;5038940;28;19913;-88
2021/12/27 10:32:36;;;;;;;;;;;11.20;98.40;;;;;;5039196;28;19917;-88
2021/12/27 10:35:07;;;;;;;;;;;11.30;98.50;;;;;;5009081;28;19944;-88
2021/12/27 10:37:36;;;;;;;;;;;11.50;98.70;;;;;;5021374;28;20114;-87
2021/12/27 10:40:04;;;;;;;;;;;11.60;98.60;;;;;;4998793;28;19921;-87
2021/12/27 10:42:35;;;;;;;;;;;11.70;98.50;;;;;;5003237;28;19924;-87
2021/12/27 10:45:06;;;;;;;;;;;11.70;98.40;;;;;;5001244;28;19917;-88
2021/12/27 10:47:39;;;;;;;;;;;11.80;98.40;;;;;;4989073;28;19919;-88
2021/12/27 10:50:14;;;;;;;;;;;11.80;98.40;;;;;;4975169;28;20440;-88
2021/12/27 10:52:47;;;;;;;;;;;11.80;98.30;;;;;;5020203;28;19920;-88
2021/12/27 10:55:14;;;;;;;;;;;11.90;98.20;;;;;;4990159;28;20436;-88
2021/12/27 10:57:41;;;;;;;;;;;11.90;98.20;;;;;;5020293;28;19916;-88
2021/12/27 11:00:20;;;;;;;;;;;11.80;98.10;;;;;;5001209;28;19913;-89
2021/12/27 11:02:47;;;;;;;;;;;11.80;98.10;;;;;;5006209;28;19929;-87
2021/12/27 11:05:16;;;;;;;;;;;11.90;98.10;;;;;;4987207;28;19963;-87
2021/12/27 11:07:43;;;;;;;;;;;11.90;98.10;;;;;;5020992;28;20281;-88
2021/12/27 11:10:10;;;;;;;;;;;11.90;98.10;;;;;;5004257;28;19939;-87
2021/12/27 11:12:37;;;;;;;;;;;11.90;98.10;;;;;;5017733;28;19913;-88
2021/12/27 11:15:09;;;;;;;;;;;11.90;98.10;;;;;;5019082;28;19920;-88
2021/12/27 11:17:37;;;;;;;;;;;11.90;98.00;;;;;;5021425;28;19921;-88
2021/12/27 11:20:07;;;;;;;;;;;11.90;98.10;;;;;;4985473;28;19917;-87
2021/12/27 11:22:38;;;;;;;;;;;11.90;98.10;;;;;;5004494;28;19920;-87
2021/12/27 11:25:07;;;;;;;;;;;12.00;98.10;;;;;;4996424;28;19917;-87
2021/12/27 11:27:35;;;;;;;;;;;12.00;98.10;;;;;;5020171;28;19913;-88
2021/12/27 11:30:04;;;;;;;;;;;12.00;98.10;;;;;;5001693;28;20382;-88
2021/12/27 11:32:31;;;;;;;;;;;12.10;98.20;;;;;;4986715;28;20301;-88
2021/12/27 11:34:59;;;;;;;;;;;12.10;98.30;;;;;;5024884;28;19935;-87
2021/12/27 11:37:35;;;;;;;;;;;12.10;98.30;;;;;;5024172;28;19947;-87
2021/12/27 11:40:04;;;;;;;;;;;12.10;98.30;;;;;;5026280;28;19921;-87
2021/12/27 11:42:50;;;;;;;;;;;12.20;98.30;;;;;;5036352;28;19916;-87
2021/12/27 11:45:36;;;;;;;;;;;12.20;98.20;;;;;;5034229;28;19912;-88
2021/12/27 11:48:11;;;;;;;;;;;12.20;98.10;;;;;;5034597;28;19913;-87
2021/12/27 11:50:56;;;;;;;;;;;12.30;98.10;;;;;;5028725;28;19916;-88
2021/12/27 11:53:27;;;;;;;;;;;12.30;98.10;;;;;;5026744;28;20111;-87
2021/12/27 11:55:54;;;;;;;;;;;12.30;98.10;;;;;;5028264;28;20396;-88
2021/12/27 11:58:32;;;;;;;;;;;12.30;98.20;;;;;;5027233;28;20495;-88
2021/12/27 12:00:59;;;;;;;;;;;12.30;98.20;;;;;;5026723;28;19917;-87
2021/12/27 12:03:40;;;;;;;;;;;12.40;98.20;;;;;;5036663;28;19916;-87
2021/12/27 12:06:27;;;;;;;;;;;12.40;98.20;;;;;;5022804;28;19913;-87
2021/12/27 12:08:56;;;;;;;;;;;12.40;98.20;;;;;;5021104;28;19917;-88
2021/12/27 12:11:30;;;;;;;;;;;12.50;98.30;;;;;;5024582;28;20528;-88
2021/12/27 12:13:59;;;;;;;;;;;12.50;98.30;;;;;;5022641;28;19935;-87
2021/12/27 12:16:26;;;;;;;;;;;12.50;98.30;;;;;;5033977;28;19921;-88
2021/12/27 12:18:53;;;;;;;;;;;12.50;98.30;;;;;;5026846;28;19921;-87
2021/12/27 12:21:29;;;;;;;;;;;12.60;98.30;;;;;;5031947;28;19923;-87
2021/12/27 12:23:57;;;;;;;;;;;12.60;98.30;;;;;;5033832;28;20374;-87
2021/12/27 12:26:24;;;;;;;;;;;12.70;98.30;;;;;;5031189;28;19938;-87
2021/12/27 12:29:03;;;;;;;;;;;12.70;98.30;;;;;;5027643;28;19913;-87
2021/12/27 12:31:31;;;;;;;;;;;12.70;98.30;;;;;;5029785;28;19913;-87
2021/12/27 12:34:21;;;;;;;;;;;12.70;98.30;;;;;;5028536;28;19920;-87
2021/12/27 12:36:52;;;;;;;;;;;12.80;98.30;;;;;;5034795;28;20387;-87
2021/12/27 12:39:19;;;;;;;;;;;12.80;98.20;;;;;;5034788;28;20103;-86
2021/12/27 12:41:48;;;;;;;;;;;12.90;98.20;;;;;;5028774;28;20409;-87
2021/12/27 12:44:15;;;;;;;;;;;12.80;98.20;;;;;;5020610;28;20006;-87
2021/12/27 12:46:45;;;;;;;;;;;12.90;98.20;;;;;;5033661;28;20398;-87
2021/12/27 12:49:14;;;;;;;;;;;12.90;98.10;;;;;;5009348;28;20102;-87
2021/12/27 12:51:43;;;;;;;;;;;12.90;98.00;;;;;;5034385;28;19909;-87
2021/12/27 12:54:19;;;;;;;;;;;12.90;98.00;;;;;;5025318;28;20308;-87
2021/12/27 12:56:46;;;;;;;;;;;12.90;98.00;;;;;;5018737;28;19935;-87
2021/12/27 12:59:17;;;;;;;;;;;12.80;97.90;;;;;;5029943;28;20329;-87
2021/12/27 13:01:58;;;;;;;;;;;12.90;97.90;;;;;;5025974;28;19916;-87
2021/12/27 13:04:45;;;;;;;;;;;12.80;97.80;;;;;;5033136;28;20006;-88
2021/12/27 13:07:14;;;;;;;;;;;12.80;97.80;;;;;;5006801;28;19913;-86
2021/12/27 13:09:50;;;;;;;;;;;12.80;97.80;;;;;;5038009;28;19927;-87
2021/12/27 13:12:22;;;;;;;;;;;12.80;97.70;;;;;;5004331;28;19912;-87
2021/12/27 13:14:50;;;;;;;;;;;12.80;97.70;;;;;;5025565;28;20280;-87
2021/12/27 13:17:18;;;;;;;;;;;12.70;97.70;;;;;;5010205;28;19932;-87
2021/12/27 13:20:03;;;;;;;;;;;12.80;97.70;;;;;;5015919;28;19920;-87
2021/12/27 13:22:36;;;;;;;;;;;12.80;97.70;;;;;;5030678;28;19912;-87
2021/12/27 13:25:04;;;;;;;;;;;12.70;97.70;;;;;;5025423;28;19909;-87
2021/12/27 13:27:31;;;;;;;;;;;12.70;97.70;;;;;;5018238;28;19913;-87
2021/12/27 13:30:05;;;;;;;;;;;12.70;97.70;;;;;;5021397;28;19913;-87
2021/12/27 13:32:32;;;;;;;;;;;12.70;97.60;;;;;;5024976;28;20620;-87
2021/12/27 13:34:59;;;;;;;;;;;12.70;97.60;;;;;;5032795;28;19921;-87
2021/12/27 13:37:26;;;;;;;;;;;12.70;97.60;;;;;;5020390;28;20018;-87
2021/12/27 13:40:22;;;;;;;;;;;12.70;97.60;;;;;;5020319;28;19986;-87
2021/12/27 13:42:49;;;;;;;;;;;12.70;97.60;;;;;;5019356;28;19917;-87
2021/12/27 13:45:16;;;;;;;;;;;12.70;97.60;;;;;;5015422;28;21405;-87
2021/12/27 13:47:50;;;;;;;;;;;12.70;97.60;;;;;;5036828;28;19909;-87
2021/12/27 13:50:27;;;;;;;;;;;12.70;97.60;;;;;;5039535;28;19909;-87
2021/12/27 13:52:55;;;;;;;;;;;12.70;97.60;;;;;;5024945;28;19917;-87
2021/12/27 13:55:27;;;;;;;;;;;12.70;97.50;;;;;;5024841;28;19917;-87
2021/12/27 13:57:54;;;;;;;;;;;12.70;97.50;;;;;;5031476;28;19917;-88
2021/12/27 14:00:28;;;;;;;;;;;12.70;97.50;;;;;;5019708;28;20470;-87
2021/12/27 14:02:56;;;;;;;;;;;12.70;97.50;;;;;;5025769;28;19933;-87
2021/12/27 14:05:23;;;;;;;;;;;12.60;97.40;;;;;;5030758;28;19921;-87
2021/12/27 14:07:50;;;;;;;;;;;12.60;97.40;;;;;;5035071;28;20284;-87
2021/12/27 14:10:18;;;;;;;;;;;12.60;97.40;;;;;;5015813;28;19921;-87
2021/12/27 14:12:54;;;;;;;;;;;12.60;97.40;;;;;;5040452;28;19927;-87
2021/12/27 14:15:25;;;;;;;;;;;12.60;97.40;;;;;;5028688;28;20305;-87
2021/12/27 14:17:53;;;;;;;;;;;12.60;97.30;;;;;;5023774;28;19921;-87
2021/12/27 14:20:19;;;;;;;;;;;12.60;97.40;;;;;;5026850;28;20121;-87
2021/12/27 14:22:52;;;;;;;;;;;12.60;97.30;;;;;;5023475;28;20101;-88
2021/12/27 14:25:20;;;;;;;;;;;12.60;97.30;;;;;;5029466;28;19913;-87
2021/12/27 14:27:47;;;;;;;;;;;12.50;97.30;;;;;;5021852;28;19913;-87
2021/12/27 14:30:14;;;;;;;;;;;12.60;97.40;;;;;;5026069;28;19999;-87
2021/12/27 14:32:43;;;;;;;;;;;12.60;97.30;;;;;;5010395;28;19912;-87
2021/12/27 14:35:20;;;;;;;;;;;12.60;97.40;;;;;;5021624;28;20103;-88
2021/12/27 14:37:48;;;;;;;;;;;12.50;97.40;;;;;;5027518;28;20120;-87